createdAt,value
2018-09-09T00:01:26.766Z,19.07
2018-09-09T00:03:55.627Z,18.10
2018-09-09T00:06:24.535Z,19.60
2018-09-09T00:08:53.382Z,19.80
2018-09-09T00:11:22.191Z,20.37
2018-09-09T00:13:51.057Z,21.17
2018-09-09T00:16:19.891Z,21.57
2018-09-09T00:18:48.777Z,22.43
2018-09-09T00:21:17.683Z,22.90
2018-09-09T00:23:46.482Z,24.43
2018-09-09T00:26:15.303Z,20.87
2018-09-09T00:28:44.155Z,25.50
2018-09-09T00:31:13.962Z,29.13
2018-09-09T00:33:42.815Z,27.77
2018-09-09T00:36:13.071Z,28.97
2018-09-09T00:38:41.938Z,28.07
2018-09-09T00:41:10.755Z,32.47
2018-09-09T00:43:39.615Z,32.90
2018-09-09T00:46:08.452Z,31.57
2018-09-09T00:48:37.271Z,22.00
2018-09-09T00:51:11.398Z,20.97
2018-09-09T00:53:47.851Z,20.83
2018-09-09T00:56:17.210Z,20.17
2018-09-09T00:58:46.021Z,21.33
2018-09-09T01:01:16.022Z,21.37
2018-09-09T01:03:47.062Z,21.27
2018-09-09T01:06:15.874Z,21.10
2018-09-09T01:08:44.681Z,21.50
2018-09-09T01:11:13.550Z,21.30
2018-09-09T01:13:42.376Z,21.80
2018-09-09T01:16:11.223Z,21.43
2018-09-09T01:18:40.099Z,23.07
2018-09-09T01:21:08.922Z,23.53
2018-09-09T01:23:39.412Z,23.77
2018-09-09T01:26:08.307Z,26.43
2018-09-09T01:28:37.123Z,26.13
2018-09-09T01:31:06.016Z,25.17
2018-09-09T01:33:34.871Z,24.57
2018-09-09T01:36:03.698Z,25.83
2018-09-09T01:38:32.631Z,25.57
2018-09-09T01:41:01.557Z,25.20
2018-09-09T01:43:30.353Z,26.40
2018-09-09T01:45:59.171Z,28.53
2018-09-09T01:48:29.032Z,27.00
2018-09-09T01:50:57.839Z,26.30
2018-09-09T01:53:28.424Z,26.50
2018-09-09T01:55:57.228Z,24.60
2018-09-09T01:58:26.050Z,22.60
2018-09-09T02:00:54.898Z,21.17
2018-09-09T02:03:23.699Z,21.77
2018-09-09T02:05:52.522Z,22.13
2018-09-09T02:08:21.420Z,22.03
2018-09-09T02:10:50.470Z,21.03
2018-09-09T02:13:19.337Z,20.87
2018-09-09T02:15:48.182Z,19.97
2018-09-09T02:18:17.009Z,19.47
2018-09-09T02:20:47.839Z,21.17
2018-09-09T02:23:16.715Z,20.27
2018-09-09T02:25:45.618Z,19.47
2018-09-09T02:28:14.510Z,18.67
2018-09-09T02:30:43.402Z,19.00
2018-09-09T02:33:12.791Z,19.17
2018-09-09T02:35:41.867Z,18.97
2018-09-09T02:38:10.733Z,19.37
2018-09-09T02:40:39.566Z,18.53
2018-09-09T02:43:08.406Z,19.50
2018-09-09T02:45:37.278Z,18.07
2018-09-09T02:48:06.159Z,18.13
2018-09-09T02:50:34.956Z,18.97
2018-09-09T02:53:03.822Z,17.73
2018-09-09T02:55:32.630Z,19.80
2018-09-09T02:58:01.425Z,19.40
2018-09-09T03:00:30.291Z,18.50
2018-09-09T03:02:59.138Z,17.63
2018-09-09T03:05:28.010Z,19.97
2018-09-09T03:07:56.815Z,18.30
2018-09-09T03:10:25.683Z,19.30
2018-09-09T03:12:54.519Z,20.43
2018-09-09T03:15:23.428Z,21.93
2018-09-09T03:17:53.535Z,20.13
2018-09-09T03:20:22.614Z,21.60
2018-09-09T03:22:51.423Z,21.27
2018-09-09T03:25:20.274Z,21.20
2018-09-09T03:27:49.089Z,22.37
2018-09-09T03:30:17.958Z,21.13
2018-09-09T03:32:46.854Z,25.45
2018-09-09T03:35:15.890Z,24.57
2018-09-09T03:37:44.690Z,23.17
2018-09-09T03:40:13.581Z,23.03
2018-09-09T03:42:42.404Z,24.87
2018-09-09T03:45:11.237Z,24.63
2018-09-09T03:47:40.265Z,25.70
2018-09-09T03:50:09.106Z,26.90
2018-09-09T03:52:39.355Z,26.20
2018-09-09T03:55:08.275Z,27.30
2018-09-09T03:57:37.081Z,27.37
2018-09-09T04:00:06.141Z,27.90
2018-09-09T04:02:34.979Z,28.90
2018-09-09T04:05:03.839Z,27.93
2018-09-09T04:07:32.701Z,29.47
2018-09-09T04:10:01.541Z,26.57
2018-09-09T04:12:30.373Z,27.60
2018-09-09T04:14:59.256Z,41.93
2018-09-09T04:17:28.096Z,66.00
2018-09-09T04:19:56.936Z,55.47
2018-09-09T04:22:25.743Z,44.70
2018-09-09T04:24:55.994Z,37.87
2018-09-09T04:27:24.807Z,29.77
2018-09-09T04:29:53.594Z,28.83
2018-09-09T04:32:23.696Z,29.43
2018-09-09T04:34:52.498Z,26.50
2018-09-09T04:37:21.329Z,27.13
2018-09-09T04:39:50.203Z,27.43
2018-09-09T04:42:19.026Z,25.53
2018-09-09T04:44:49.343Z,25.97
2018-09-09T04:47:18.162Z,25.00
2018-09-09T04:49:46.990Z,24.83
2018-09-09T04:52:15.858Z,23.90
2018-09-09T04:54:44.680Z,23.00
2018-09-09T04:57:13.482Z,24.50
2018-09-09T04:59:42.347Z,23.50
2018-09-09T05:02:11.170Z,24.73
2018-09-09T05:04:40.014Z,29.93
2018-09-09T05:07:08.889Z,30.73
2018-09-09T05:09:37.704Z,28.13
2018-09-09T05:12:06.767Z,27.73
2018-09-09T05:14:35.626Z,24.23
2018-09-09T05:17:04.587Z,24.87
2018-09-09T05:19:33.395Z,27.27
2018-09-09T05:22:02.286Z,24.57
2018-09-09T05:24:31.130Z,23.77
2018-09-09T05:26:59.999Z,21.07
2018-09-09T05:29:28.849Z,19.00
2018-09-09T05:31:57.651Z,18.70
2018-09-09T05:34:26.490Z,19.53
2018-09-09T05:36:56.749Z,20.27
2018-09-09T05:39:25.570Z,19.77
2018-09-09T05:41:54.415Z,19.00
2018-09-09T05:44:23.362Z,19.00
2018-09-09T05:46:52.199Z,19.13
2018-09-09T05:49:21.064Z,18.63
2018-09-09T05:51:49.901Z,17.50
2018-09-09T05:54:18.693Z,17.13
2018-09-09T05:56:49.047Z,17.20
2018-09-09T05:59:17.858Z,15.20
2018-09-09T06:01:46.691Z,14.37
2018-09-09T06:04:16.754Z,14.43
2018-09-09T06:06:45.801Z,14.43
2018-09-09T06:09:14.627Z,14.50
2018-09-09T06:11:43.529Z,15.23
2018-09-09T06:14:12.363Z,13.93
2018-09-09T06:16:41.238Z,13.20
2018-09-09T06:19:10.142Z,13.07
2018-09-09T06:21:38.969Z,15.03
2018-09-09T06:24:07.798Z,13.60
2018-09-09T06:26:36.688Z,13.17
2018-09-09T06:29:05.537Z,13.83
2018-09-09T06:31:34.417Z,13.47
2018-09-09T06:34:03.336Z,13.83
2018-09-09T06:36:32.423Z,13.17
2018-09-09T06:39:01.283Z,13.00
2018-09-09T06:41:30.125Z,13.17
2018-09-09T06:44:00.330Z,13.70
2018-09-09T06:46:29.189Z,13.47
2018-09-09T06:48:57.986Z,13.57
2018-09-09T06:51:28.094Z,13.17
2018-09-09T06:53:57.035Z,14.63
2018-09-09T06:56:25.855Z,16.40
2018-09-09T06:58:56.212Z,12.87
2018-09-09T07:01:25.144Z,14.13
2018-09-09T07:03:54.050Z,13.97
2018-09-09T07:06:22.920Z,13.73
2018-09-09T07:08:53.562Z,13.13
2018-09-09T07:11:22.468Z,14.33
2018-09-09T07:13:51.285Z,13.30
2018-09-09T07:16:21.355Z,14.27
2018-09-09T07:18:50.181Z,13.17
2018-09-09T07:21:19.017Z,13.53
2018-09-09T07:23:47.877Z,13.87
2018-09-09T07:26:16.709Z,13.27
2018-09-09T07:28:45.569Z,13.70
2018-09-09T07:31:14.526Z,13.57
2018-09-09T07:33:43.407Z,13.93
2018-09-09T07:36:12.214Z,13.67
2018-09-09T07:38:41.038Z,13.37
2018-09-09T07:41:11.393Z,13.17
2018-09-09T07:43:40.232Z,13.27
2018-09-09T07:46:09.105Z,14.50
2018-09-09T07:48:39.247Z,12.40
2018-09-09T07:51:08.111Z,14.53
2018-09-09T07:53:36.898Z,15.33
2018-09-09T07:56:06.289Z,15.30
2018-09-09T07:58:35.106Z,14.60
2018-09-09T08:01:03.970Z,16.20
2018-09-09T08:03:34.047Z,15.40
2018-09-09T08:06:02.891Z,14.20
2018-09-09T08:08:31.740Z,15.10
2018-09-09T08:11:00.675Z,15.60
2018-09-09T08:13:29.541Z,14.73
2018-09-09T08:15:58.377Z,14.93
2018-09-09T08:18:28.627Z,15.37
2018-09-09T08:20:57.566Z,15.43
2018-09-09T08:23:27.694Z,14.87
2018-09-09T08:25:57.968Z,14.83
2018-09-09T08:28:27.308Z,15.67
2018-09-09T08:30:56.377Z,14.27
2018-09-09T08:33:25.278Z,15.57
2018-09-09T08:35:54.201Z,14.87
2018-09-09T08:38:23.124Z,15.03
2018-09-09T08:40:51.944Z,15.53
2018-09-09T08:43:20.779Z,15.77
2018-09-09T08:45:49.648Z,14.83
2018-09-09T08:48:18.478Z,14.63
2018-09-09T08:50:47.312Z,15.53
2018-09-09T08:53:16.246Z,15.13
2018-09-09T08:55:45.097Z,15.63
2018-09-09T08:58:13.946Z,14.97
2018-09-09T09:00:42.838Z,16.03
2018-09-09T09:03:11.699Z,15.77
2018-09-09T09:05:40.710Z,15.50
2018-09-09T09:08:09.668Z,14.47
2018-09-09T09:10:38.575Z,14.73
2018-09-09T09:13:07.391Z,15.37
2018-09-09T09:15:36.282Z,15.23
2018-09-09T09:18:05.150Z,14.67
2018-09-09T09:20:34.004Z,13.87
2018-09-09T09:23:03.330Z,14.07
2018-09-09T09:25:32.475Z,13.97
2018-09-09T09:28:01.423Z,13.97
2018-09-09T09:30:30.265Z,14.10
2018-09-09T09:32:59.293Z,14.83
2018-09-09T09:35:33.298Z,13.37
2018-09-09T09:38:03.350Z,14.20
2018-09-09T09:40:32.202Z,13.90
2018-09-09T09:43:01.026Z,14.03
2018-09-09T09:45:29.899Z,14.80
2018-09-09T09:48:00.401Z,14.53
2018-09-09T09:50:29.357Z,14.60
2018-09-09T09:52:58.227Z,12.83
2018-09-09T09:55:27.224Z,14.67
2018-09-09T09:57:56.071Z,14.00
2018-09-09T10:00:31.441Z,15.07
2018-09-09T10:03:00.272Z,13.47
2018-09-09T10:05:29.155Z,13.53
2018-09-09T10:07:58.039Z,14.33
2018-09-09T10:10:26.954Z,14.80
2018-09-09T10:12:55.817Z,15.80
2018-09-09T10:15:26.075Z,14.57
2018-09-09T10:17:54.953Z,15.50
2018-09-09T10:20:23.815Z,16.47
2018-09-09T10:22:53.925Z,16.33
2018-09-09T10:25:22.764Z,14.80
2018-09-09T10:27:51.596Z,15.93
2018-09-09T10:30:21.876Z,15.43
2018-09-09T10:32:50.800Z,15.37
2018-09-09T10:35:19.769Z,14.83
2018-09-09T10:37:50.008Z,14.73
2018-09-09T10:40:18.893Z,15.60
2018-09-09T10:42:47.700Z,16.23
2018-09-09T10:45:17.886Z,13.57
2018-09-09T10:47:46.715Z,14.93
2018-09-09T10:50:15.549Z,15.40
2018-09-09T10:52:45.881Z,15.43
2018-09-09T10:55:14.707Z,15.43
2018-09-09T10:57:43.571Z,14.70
2018-09-09T11:00:13.698Z,14.17
2018-09-09T11:02:42.558Z,14.57
2018-09-09T11:05:11.380Z,13.60
2018-09-09T11:07:41.673Z,14.93
2018-09-09T11:10:10.185Z,14.00
2018-09-09T11:12:39.096Z,14.20
2018-09-09T11:15:08.059Z,15.37
2018-09-09T11:17:36.992Z,13.90
2018-09-09T11:20:05.978Z,13.87
2018-09-09T11:22:34.868Z,13.93
2018-09-09T11:25:03.760Z,13.73
2018-09-09T11:27:32.746Z,13.00
2018-09-09T11:30:03.128Z,12.90
2018-09-09T11:32:31.861Z,13.07
2018-09-09T11:35:00.694Z,12.87
2018-09-09T11:37:29.595Z,12.57
2018-09-09T11:39:58.443Z,12.70
2018-09-09T11:42:27.314Z,11.93
2018-09-09T11:44:56.264Z,12.57
2018-09-09T11:47:25.096Z,12.33
2018-09-09T11:49:53.978Z,12.80
2018-09-09T11:52:22.851Z,14.07
2018-09-09T11:54:51.667Z,13.80
2018-09-09T11:57:20.565Z,13.23
2018-09-09T11:59:49.496Z,13.43
2018-09-09T12:02:18.357Z,14.37
2018-09-09T12:04:47.207Z,15.43
2018-09-09T12:07:17.553Z,15.23
2018-09-09T12:09:46.404Z,15.37
2018-09-09T12:12:15.266Z,14.80
2018-09-09T12:14:45.410Z,14.30
2018-09-09T12:17:14.306Z,17.60
2018-09-09T12:19:43.871Z,19.40
2018-09-09T12:22:12.783Z,20.30
2018-09-09T12:24:41.722Z,19.37
2018-09-09T12:27:10.676Z,19.37
2018-09-09T12:29:39.600Z,18.30
2018-09-09T12:32:09.729Z,16.53
2018-09-09T12:34:38.672Z,14.47
2018-09-09T12:37:07.695Z,12.03
2018-09-09T12:39:36.564Z,11.37
2018-09-09T12:42:05.461Z,11.63
2018-09-09T12:44:40.017Z,12.60
2018-09-09T12:47:14.077Z,11.77
2018-09-09T12:49:43.251Z,13.00
2018-09-09T12:52:12.698Z,9.97
2018-09-09T12:54:41.552Z,10.93
2018-09-09T12:57:14.682Z,9.83
2018-09-09T12:59:45.001Z,11.30
2018-09-09T13:02:13.918Z,11.37
2018-09-09T13:04:42.777Z,11.47
2018-09-09T13:07:11.814Z,12.53
2018-09-09T13:09:40.688Z,13.48
2018-09-09T13:12:09.543Z,12.73
2018-09-09T13:14:38.398Z,14.03
2018-09-09T13:17:07.266Z,12.95
2018-09-09T13:19:36.116Z,13.68
2018-09-09T13:22:05.001Z,12.87
2018-09-09T13:24:34.018Z,12.43
2018-09-09T13:27:02.847Z,13.20
2018-09-09T13:29:31.671Z,12.98
2018-09-09T13:32:00.555Z,12.27
2018-09-09T13:34:29.383Z,12.80
2018-09-09T13:36:58.239Z,11.77
2018-09-09T13:39:27.312Z,10.90
2018-09-09T13:41:56.221Z,12.03
2018-09-09T13:44:25.081Z,12.80
2018-09-09T13:46:54.076Z,11.97
2018-09-09T13:49:22.912Z,11.83
2018-09-09T13:51:51.794Z,11.70
2018-09-09T13:54:20.695Z,11.60
2018-09-09T13:56:49.521Z,10.93
2018-09-09T13:59:18.368Z,11.10
2018-09-09T14:01:50.016Z,11.97
2018-09-09T14:04:18.863Z,11.10
2018-09-09T14:06:48.132Z,10.43
2018-09-09T14:09:18.404Z,11.00
2018-09-09T14:11:47.247Z,10.60
2018-09-09T14:14:16.108Z,10.13
2018-09-09T14:16:44.995Z,10.60
2018-09-09T14:19:13.834Z,10.87
2018-09-09T14:21:43.941Z,9.67
2018-09-09T14:24:12.798Z,9.33
2018-09-09T14:26:43.220Z,9.83
2018-09-09T14:29:13.575Z,10.10
2018-09-09T14:31:42.502Z,9.37
2018-09-09T14:34:11.447Z,10.90
2018-09-09T14:36:41.703Z,9.63
2018-09-09T14:39:11.868Z,10.80
2018-09-09T14:41:40.726Z,11.27
2018-09-09T14:44:09.612Z,10.10
2018-09-09T14:46:38.476Z,11.67
2018-09-09T14:49:07.393Z,9.60
2018-09-09T14:51:36.274Z,9.60
2018-09-09T14:54:05.173Z,10.17
2018-09-09T14:56:34.336Z,9.47
2018-09-09T14:59:05.553Z,9.77
2018-09-09T15:01:34.473Z,10.60
2018-09-09T15:04:03.397Z,9.90
2018-09-09T15:06:33.734Z,10.27
2018-09-09T15:09:02.688Z,9.70
2018-09-09T15:11:31.582Z,10.13
2018-09-09T15:14:00.501Z,10.83
2018-09-09T15:16:29.435Z,10.87
2018-09-09T15:18:58.370Z,10.80
2018-09-09T15:21:27.339Z,10.40
2018-09-09T15:23:56.237Z,11.03
2018-09-09T15:26:25.170Z,10.80
2018-09-09T15:28:54.137Z,9.97
2018-09-09T15:31:23.177Z,11.90
2018-09-09T15:33:52.258Z,11.10
2018-09-09T15:36:21.193Z,12.10
2018-09-09T15:38:50.177Z,11.10
2018-09-09T15:41:19.050Z,11.33
2018-09-09T15:43:47.929Z,11.30
2018-09-09T15:46:18.129Z,11.33
2018-09-09T15:48:46.969Z,10.60
2018-09-09T15:51:15.791Z,11.73
2018-09-09T15:53:44.709Z,11.67
2018-09-09T15:56:13.594Z,11.57
2018-09-09T15:58:42.478Z,12.33
2018-09-09T16:01:11.408Z,13.47
2018-09-09T16:03:40.262Z,12.67
2018-09-09T16:06:09.133Z,12.10
2018-09-09T16:08:39.310Z,12.73
2018-09-09T16:11:08.197Z,12.57
2018-09-09T16:13:37.031Z,12.37
2018-09-09T16:16:05.993Z,12.07
2018-09-09T16:18:34.871Z,12.00
2018-09-09T16:21:03.754Z,13.00
2018-09-09T16:23:32.754Z,12.97
2018-09-09T16:26:01.630Z,12.13
2018-09-09T16:28:30.553Z,12.77
2018-09-09T16:30:59.486Z,12.87
2018-09-09T16:33:28.409Z,13.27
2018-09-09T16:35:58.589Z,14.10
2018-09-09T16:38:27.420Z,13.80
2018-09-09T16:40:56.284Z,14.00
2018-09-09T16:43:26.502Z,13.50
2018-09-09T16:45:55.740Z,15.20
2018-09-09T16:48:26.050Z,14.17
2018-09-09T16:50:56.389Z,14.20
2018-09-09T16:53:25.385Z,14.43
2018-09-09T16:55:54.356Z,14.50
2018-09-09T16:58:23.306Z,14.83
2018-09-09T17:00:52.266Z,14.13
2018-09-09T17:03:21.202Z,14.20
2018-09-09T17:05:50.156Z,14.63
2018-09-09T17:08:19.094Z,14.53
2018-09-09T17:10:48.009Z,14.70
2018-09-09T17:13:16.994Z,15.73
2018-09-09T17:15:45.972Z,15.10
2018-09-09T17:18:14.802Z,14.83
2018-09-09T17:20:45.125Z,15.07
2018-09-09T17:23:13.990Z,14.87
2018-09-09T17:25:42.871Z,16.50
2018-09-09T17:28:11.860Z,16.40
2018-09-09T17:30:46.182Z,15.63
2018-09-09T17:33:15.085Z,15.27
2018-09-09T17:35:44.021Z,15.43
2018-09-09T17:38:12.930Z,14.93
2018-09-09T17:40:41.826Z,14.93
2018-09-09T17:43:10.660Z,14.70
2018-09-09T17:45:39.715Z,13.90
2018-09-09T17:48:08.610Z,14.40
2018-09-09T17:50:37.499Z,15.80
2018-09-09T17:53:06.474Z,15.10
2018-09-09T17:55:35.326Z,14.77
2018-09-09T17:58:04.196Z,14.43
2018-09-09T18:00:34.402Z,15.57
2018-09-09T18:03:03.423Z,14.60
2018-09-09T18:05:32.724Z,15.43
2018-09-09T18:08:03.038Z,14.27
2018-09-09T18:10:31.912Z,14.93
2018-09-09T18:13:00.825Z,14.60
2018-09-09T18:15:29.758Z,15.63
2018-09-09T18:17:58.598Z,16.47
2018-09-09T18:20:27.521Z,16.77
2018-09-09T18:22:56.490Z,17.47
2018-09-09T18:25:25.287Z,15.40
2018-09-09T18:27:54.158Z,19.70
2018-09-09T18:30:24.547Z,16.77
2018-09-09T18:32:53.374Z,15.70
2018-09-09T18:35:22.187Z,14.80
2018-09-09T18:37:52.301Z,15.73
2018-09-09T18:40:21.185Z,13.03
2018-09-09T18:42:50.024Z,12.43
2018-09-09T18:45:18.995Z,11.00
2018-09-09T18:47:48.191Z,8.90
2018-09-09T18:50:17.305Z,10.93
2018-09-09T18:52:47.643Z,11.37
2018-09-09T18:55:16.859Z,11.47
2018-09-09T18:57:45.786Z,11.90
2018-09-09T19:00:16.249Z,12.63
2018-09-09T19:02:45.336Z,11.53
2018-09-09T19:05:14.412Z,12.33
2018-09-09T19:07:44.690Z,13.10
2018-09-09T19:10:13.529Z,12.83
2018-09-09T19:12:42.456Z,12.63
2018-09-09T19:15:11.394Z,10.83
2018-09-09T19:17:41.643Z,13.00
2018-09-09T19:20:10.592Z,13.00
2018-09-09T19:22:39.442Z,14.23
2018-09-09T19:25:09.616Z,14.10
2018-09-09T19:27:38.797Z,12.63
2018-09-09T19:30:08.409Z,12.30
2018-09-09T19:32:37.364Z,13.30
2018-09-09T19:35:06.294Z,12.77
2018-09-09T19:37:35.137Z,12.37
2018-09-09T19:40:04.138Z,11.77
2018-09-09T19:42:35.551Z,12.20
2018-09-09T19:45:07.506Z,13.10
2018-09-09T19:47:36.418Z,12.83
2018-09-09T19:50:06.348Z,13.10
2018-09-09T19:52:35.815Z,13.70
2018-09-09T19:55:04.762Z,13.47
2018-09-09T19:57:33.629Z,13.07
2018-09-09T20:00:04.002Z,12.57
2018-09-09T20:02:32.859Z,12.60
2018-09-09T20:05:01.704Z,13.40
2018-09-09T20:07:31.775Z,14.00
2018-09-09T20:10:00.630Z,13.67
2018-09-09T20:12:29.464Z,13.83
2018-09-09T20:14:59.550Z,15.23
2018-09-09T20:17:28.386Z,14.43
2018-09-09T20:19:57.229Z,14.40
2018-09-09T20:22:27.300Z,13.53
2018-09-09T20:24:56.124Z,15.10
2018-09-09T20:27:24.943Z,14.60
2018-09-09T20:29:55.112Z,15.33
2018-09-09T20:32:25.450Z,14.33
2018-09-09T20:34:54.293Z,14.40
2018-09-09T20:37:23.182Z,13.23
2018-09-09T20:39:52.017Z,14.27
2018-09-09T20:42:22.423Z,13.30
2018-09-09T20:44:51.303Z,13.30
2018-09-09T20:47:20.191Z,11.63
2018-09-09T20:49:49.107Z,12.17
2018-09-09T20:52:17.951Z,11.90
2018-09-09T20:54:46.814Z,11.37
2018-09-09T20:57:15.704Z,12.23
2018-09-09T20:59:44.546Z,11.77
2018-09-09T21:02:13.449Z,12.33
2018-09-09T21:04:42.371Z,11.70
2018-09-09T21:07:11.294Z,12.40
2018-09-09T21:09:40.242Z,11.37
2018-09-09T21:12:09.084Z,11.70
2018-09-09T21:14:37.959Z,12.17
2018-09-09T21:17:06.936Z,11.30
2018-09-09T21:19:35.937Z,10.83
2018-09-09T21:22:04.895Z,11.13
2018-09-09T21:24:33.742Z,11.80
2018-09-09T21:27:02.601Z,12.37
2018-09-09T21:29:31.556Z,10.67
2018-09-09T21:32:00.361Z,11.93
2018-09-09T21:34:29.196Z,11.43
2018-09-09T21:36:58.235Z,12.03
2018-09-09T21:39:27.177Z,11.67
2018-09-09T21:41:56.054Z,12.57
2018-09-09T21:44:24.914Z,11.70
2018-09-09T21:46:53.841Z,12.43
2018-09-09T21:49:22.761Z,11.03
2018-09-09T21:51:51.782Z,11.07
2018-09-09T21:54:20.640Z,10.77
2018-09-09T21:56:49.538Z,11.30
2018-09-09T21:59:18.416Z,10.50
2018-09-09T22:01:52.495Z,10.90
2018-09-09T22:04:21.314Z,10.53
2018-09-09T22:06:51.713Z,11.33
2018-09-09T22:09:20.578Z,10.93
2018-09-09T22:11:49.454Z,11.07
2018-09-09T22:14:19.596Z,10.27
2018-09-09T22:16:48.450Z,10.40
2018-09-09T22:19:17.269Z,11.43
2018-09-09T22:21:48.641Z,11.57
2018-09-09T22:24:18.904Z,10.03
2018-09-09T22:26:47.766Z,11.20
2018-09-09T22:29:17.854Z,11.50
2018-09-09T22:31:46.765Z,11.83
2018-09-09T22:34:15.756Z,11.10
2018-09-09T22:36:44.650Z,11.60
2018-09-09T22:39:15.685Z,11.63
2018-09-09T22:41:44.508Z,12.13
2018-09-09T22:44:13.702Z,10.90
2018-09-09T22:46:43.135Z,11.93
2018-09-09T22:49:11.990Z,11.37
2018-09-09T22:51:40.901Z,11.10
2018-09-09T22:54:09.726Z,10.10
2018-09-09T22:56:38.567Z,10.93
2018-09-09T22:59:07.490Z,10.87
2018-09-09T23:01:36.333Z,11.07
2018-09-09T23:04:05.197Z,11.07
2018-09-09T23:06:34.076Z,10.07
2018-09-09T23:09:03.006Z,11.83
2018-09-09T23:11:31.830Z,10.13
2018-09-09T23:14:00.714Z,10.57
2018-09-09T23:16:29.579Z,11.00
2018-09-09T23:18:58.439Z,10.20
2018-09-09T23:21:27.353Z,10.40
2018-09-09T23:23:56.166Z,9.70
2018-09-09T23:26:25.039Z,10.00
2018-09-09T23:28:53.892Z,10.87
2018-09-09T23:31:22.774Z,10.30
2018-09-09T23:33:51.590Z,9.30
2018-09-09T23:36:20.484Z,9.83
2018-09-09T23:38:49.353Z,10.30
2018-09-09T23:41:18.170Z,10.35
2018-09-09T23:43:47.002Z,9.80
2018-09-09T23:46:15.922Z,9.87
2018-09-09T23:48:44.722Z,10.40
2018-09-09T23:51:13.542Z,10.63
2018-09-09T23:53:42.392Z,9.93
2018-09-09T23:56:11.211Z,9.73
2018-09-09T23:58:40.049Z,9.23
